sensor_id;sensor_type;location;lat;lon;timestamp;pressure;altitude;pressure_sealevel;temperature;humidity
26112;BME280;13829;48.990;8.346;2023-08-07T00:01:20;100391.16;;;14.94;98.90
26112;BME280;13829;48.990;8.346;2023-08-07T00:03:47;100386.78;;;14.90;97.72
26112;BME280;13829;48.990;8.346;2023-08-07T00:06:15;100388.53;;;14.89;97.43
26112;BME280;13829;48.990;8.346;2023-08-07T00:08:42;100391.16;;;14.94;96.32
26112;BME280;13829;48.990;8.346;2023-08-07T00:11:11;100388.34;;;15.06;95.68
26112;BME280;13829;48.990;8.346;2023-08-07T00:13:38;100401.84;;;14.84;96.91
26112;BME280;13829;48.990;8.346;2023-08-07T00:16:05;100390.41;;;14.82;96.64
26112;BME280;13829;48.990;8.346;2023-08-07T00:18:32;100392.78;;;15.03;96.19
26112;BME280;13829;48.990;8.346;2023-08-07T00:20:59;100405.22;;;14.96;96.21
26112;BME280;13829;48.990;8.346;2023-08-07T00:23:28;100400.75;;;14.99;96.67
26112;BME280;13829;48.990;8.346;2023-08-07T00:25:55;100399.19;;;14.86;96.66
26112;BME280;13829;48.990;8.346;2023-08-07T00:28:22;100402.59;;;14.94;97.06
26112;BME280;13829;48.990;8.346;2023-08-07T00:30:48;100407.06;;;14.92;96.27
26112;BME280;13829;48.990;8.346;2023-08-07T00:33:15;100401.75;;;14.91;97.50
26112;BME280;13829;48.990;8.346;2023-08-07T00:35:42;100401.69;;;14.97;96.80
26112;BME280;13829;48.990;8.346;2023-08-07T00:38:09;100400.97;;;14.84;97.97
26112;BME280;13829;48.990;8.346;2023-08-07T00:40:38;100393.81;;;14.91;97.20
26112;BME280;13829;48.990;8.346;2023-08-07T00:43:05;100398.22;;;14.92;97.07
26112;BME280;13829;48.990;8.346;2023-08-07T00:45:45;100404.53;;;14.81;97.17
26112;BME280;13829;48.990;8.346;2023-08-07T00:48:14;100404.59;;;14.78;97.04
26112;BME280;13829;48.990;8.346;2023-08-07T00:50:42;100403.66;;;14.79;96.33
26112;BME280;13829;48.990;8.346;2023-08-07T00:53:11;100400.94;;;14.86;96.86
26112;BME280;13829;48.990;8.346;2023-08-07T00:55:40;100400.19;;;14.74;96.49
26112;BME280;13829;48.990;8.346;2023-08-07T00:58:07;100401.94;;;14.78;95.97
26112;BME280;13829;48.990;8.346;2023-08-07T01:00:34;100401.13;;;14.72;95.30
26112;BME280;13829;48.990;8.346;2023-08-07T01:03:04;100404.75;;;14.64;95.63
26112;BME280;13829;48.990;8.346;2023-08-07T01:05:31;100402.94;;;14.70;95.96
26112;BME280;13829;48.990;8.346;2023-08-07T01:07:59;100400.34;;;14.60;96.41
26112;BME280;13829;48.990;8.346;2023-08-07T01:10:52;100397.69;;;14.60;96.26
26112;BME280;13829;48.990;8.346;2023-08-07T01:13:29;100399.53;;;14.57;96.60
26112;BME280;13829;48.990;8.346;2023-08-07T01:16:05;100404.97;;;14.40;96.63
26112;BME280;13829;48.990;8.346;2023-08-07T01:18:36;100400.41;;;14.54;96.03
26112;BME280;13829;48.990;8.346;2023-08-07T01:21:05;100406.66;;;14.48;96.92
26112;BME280;13829;48.990;8.346;2023-08-07T01:23:33;100411.91;;;14.50;95.99
26112;BME280;13829;48.990;8.346;2023-08-07T01:26:00;100410.16;;;14.50;95.99
26112;BME280;13829;48.990;8.346;2023-08-07T01:28:33;100412.84;;;14.47;96.34
26112;BME280;13829;48.990;8.346;2023-08-07T01:31:09;100414.59;;;14.48;97.71
26112;BME280;13829;48.990;8.346;2023-08-07T01:33:52;100409.31;;;14.48;97.40
26112;BME280;13829;48.990;8.346;2023-08-07T01:36:23;100415.50;;;14.46;97.28
26112;BME280;13829;48.990;8.346;2023-08-07T01:38:52;100421.59;;;14.56;96.80
26112;BME280;13829;48.990;8.346;2023-08-07T01:41:21;100416.41;;;14.43;97.01
26112;BME280;13829;48.990;8.346;2023-08-07T01:43:48;100421.59;;;14.52;95.97
26112;BME280;13829;48.990;8.346;2023-08-07T01:46:17;100422.56;;;14.44;95.59
26112;BME280;13829;48.990;8.346;2023-08-07T01:48:44;100418.09;;;14.50;95.58
26112;BME280;13829;48.990;8.346;2023-08-07T01:51:11;100422.69;;;14.33;95.37
26112;BME280;13829;48.990;8.346;2023-08-07T01:53:38;100420.13;;;14.27;95.38
26112;BME280;13829;48.990;8.346;2023-08-07T01:56:06;100423.69;;;14.23;96.25
26112;BME280;13829;48.990;8.346;2023-08-07T01:58:33;100421.94;;;14.18;96.07
26112;BME280;13829;48.990;8.346;2023-08-07T02:01:00;100413.13;;;14.23;95.84
26112;BME280;13829;48.990;8.346;2023-08-07T02:03:27;100414.09;;;14.09;96.33
26112;BME280;13829;48.990;8.346;2023-08-07T02:05:54;100421.19;;;14.09;96.04
26112;BME280;13829;48.990;8.346;2023-08-07T02:08:20;100425.66;;;13.99;97.74
26112;BME280;13829;48.990;8.346;2023-08-07T02:10:47;100420.38;;;13.96;98.94
26112;BME280;13829;48.990;8.346;2023-08-07T02:13:16;100426.63;;;13.89;98.45
26112;BME280;13829;48.990;8.346;2023-08-07T02:15:42;100422.22;;;13.88;99.04
26112;BME280;13829;48.990;8.346;2023-08-07T02:18:09;100419.56;;;13.89;99.77
26112;BME280;13829;48.990;8.346;2023-08-07T02:20:36;100425.88;;;13.76;100.00
26112;BME280;13829;48.990;8.346;2023-08-07T02:23:03;100418.75;;;13.79;100.00
26112;BME280;13829;48.990;8.346;2023-08-07T02:25:30;100427.59;;;13.80;100.00
26112;BME280;13829;48.990;8.346;2023-08-07T02:27:57;100424.94;;;13.77;100.00
26112;BME280;13829;48.990;8.346;2023-08-07T02:30:26;100423.16;;;13.80;100.00
26112;BME280;13829;48.990;8.346;2023-08-07T02:32:52;100424.97;;;13.75;100.00
26112;BME280;13829;48.990;8.346;2023-08-07T02:35:19;100420.56;;;13.74;100.00
26112;BME280;13829;48.990;8.346;2023-08-07T02:37:46;100415.28;;;13.74;100.00
26112;BME280;13829;48.990;8.346;2023-08-07T02:40:13;100414.50;;;13.64;100.00
26112;BME280;13829;48.990;8.346;2023-08-07T02:42:41;100406.56;;;13.63;100.00
26112;BME280;13829;48.990;8.346;2023-08-07T02:45:09;100414.50;;;13.64;100.00
26112;BME280;13829;48.990;8.346;2023-08-07T02:47:37;100413.56;;;13.70;100.00
26112;BME280;13829;48.990;8.346;2023-08-07T02:50:05;100412.75;;;13.62;100.00
26112;BME280;13829;48.990;8.346;2023-08-07T02:52:32;100423.31;;;13.59;100.00
26112;BME280;13829;48.990;8.346;2023-08-07T02:54:59;100426.09;;;13.43;100.00
26112;BME280;13829;48.990;8.346;2023-08-07T02:57:26;100417.31;;;13.32;100.00
26112;BME280;13829;48.990;8.346;2023-08-07T02:59:52;100420.75;;;13.49;100.00
26112;BME280;13829;48.990;8.346;2023-08-07T03:02:19;100426.13;;;13.34;100.00
26112;BME280;13829;48.990;8.346;2023-08-07T03:04:48;100419.03;;;13.42;100.00
26112;BME280;13829;48.990;8.346;2023-08-07T03:07:14;100428.81;;;13.23;100.00
26112;BME280;13829;48.990;8.346;2023-08-07T03:09:45;100434.06;;;13.25;100.00
26112;BME280;13829;48.990;8.346;2023-08-07T03:12:12;100421.69;;;13.34;100.00
26112;BME280;13829;48.990;8.346;2023-08-07T03:14:40;100427.97;;;13.16;100.00
26112;BME280;13829;48.990;8.346;2023-08-07T03:17:07;100433.25;;;13.16;100.00
26112;BME280;13829;48.990;8.346;2023-08-07T03:19:34;100429.72;;;13.14;100.00
26112;BME280;13829;48.990;8.346;2023-08-07T03:22:03;100427.97;;;13.13;100.00
26112;BME280;13829;48.990;8.346;2023-08-07T03:24:30;100433.22;;;13.19;100.00
26112;BME280;13829;48.990;8.346;2023-08-07T03:26:57;100436.69;;;13.26;100.00
26112;BME280;13829;48.990;8.346;2023-08-07T03:29:24;100432.38;;;13.14;100.00
26112;BME280;13829;48.990;8.346;2023-08-07T03:31:51;100438.50;;;13.19;100.00
26112;BME280;13829;48.990;8.346;2023-08-07T03:34:18;100432.44;;;13.05;100.00
26112;BME280;13829;48.990;8.346;2023-08-07T03:36:45;100436.75;;;13.18;100.00
26112;BME280;13829;48.990;8.346;2023-08-07T03:39:13;100438.47;;;13.26;100.00
26112;BME280;13829;48.990;8.346;2023-08-07T03:41:40;100440.22;;;13.24;100.00
26112;BME280;13829;48.990;8.346;2023-08-07T03:44:07;100438.47;;;13.26;100.00
26112;BME280;13829;48.990;8.346;2023-08-07T03:46:34;100443.72;;;13.32;100.00
26112;BME280;13829;48.990;8.346;2023-08-07T03:49:01;100441.09;;;13.32;100.00
26112;BME280;13829;48.990;8.346;2023-08-07T03:51:28;100439.28;;;13.43;100.00
26112;BME280;13829;48.990;8.346;2023-08-07T03:53:56;100443.63;;;13.49;100.00
26112;BME280;13829;48.990;8.346;2023-08-07T03:56:24;100444.53;;;13.49;100.00
26112;BME280;13829;48.990;8.346;2023-08-07T03:58:51;100443.66;;;13.47;100.00
26112;BME280;13829;48.990;8.346;2023-08-07T04:01:18;100446.34;;;13.41;100.00
26112;BME280;13829;48.990;8.346;2023-08-07T04:03:47;100448.94;;;13.47;100.00
26112;BME280;13829;48.990;8.346;2023-08-07T04:06:14;100450.66;;;13.51;100.00
26112;BME280;13829;48.990;8.346;2023-08-07T04:08:41;100443.66;;;13.50;100.00
26112;BME280;13829;48.990;8.346;2023-08-07T04:11:08;100452.34;;;13.65;100.00
26112;BME280;13829;48.990;8.346;2023-08-07T04:13:37;100457.59;;;13.68;100.00
26112;BME280;13829;48.990;8.346;2023-08-07T04:16:05;100457.59;;;13.71;100.00
26112;BME280;13829;48.990;8.346;2023-08-07T04:18:32;100451.41;;;13.74;100.00
26112;BME280;13829;48.990;8.346;2023-08-07T04:21:00;100454.09;;;13.69;100.00
26112;BME280;13829;48.990;8.346;2023-08-07T04:23:27;100459.31;;;13.75;100.00
26112;BME280;13829;48.990;8.346;2023-08-07T04:25:54;100451.38;;;13.77;100.00
26112;BME280;13829;48.990;8.346;2023-08-07T04:28:21;100458.44;;;13.78;100.00
26112;BME280;13829;48.990;8.346;2023-08-07T04:30:51;100449.50;;;13.93;100.00
26112;BME280;13829;48.990;8.346;2023-08-07T04:33:19;100457.53;;;13.83;100.00
26112;BME280;13829;48.990;8.346;2023-08-07T04:35:47;100455.72;;;13.85;100.00
26112;BME280;13829;48.990;8.346;2023-08-07T04:38:14;100469.81;;;13.88;100.00
26112;BME280;13829;48.990;8.346;2023-08-07T04:40:44;100466.31;;;13.84;100.00
26112;BME280;13829;48.990;8.346;2023-08-07T04:43:12;100464.50;;;13.94;100.00
26112;BME280;13829;48.990;8.346;2023-08-07T04:45:39;100456.56;;;13.91;100.00
26112;BME280;13829;48.990;8.346;2023-08-07T04:48:08;100455.63;;;13.98;100.00
26112;BME280;13829;48.990;8.346;2023-08-07T04:50:35;100456.56;;;13.91;100.00
26112;BME280;13829;48.990;8.346;2023-08-07T04:53:02;100456.63;;;13.86;100.00
26112;BME280;13829;48.990;8.346;2023-08-07T04:55:29;100462.75;;;13.88;100.00
26112;BME280;13829;48.990;8.346;2023-08-07T04:57:56;100467.94;;;14.02;100.00
26112;BME280;13829;48.990;8.346;2023-08-07T05:00:23;100473.31;;;13.93;100.00
26112;BME280;13829;48.990;8.346;2023-08-07T05:02:50;100478.63;;;13.90;100.00
26112;BME280;13829;48.990;8.346;2023-08-07T05:05:18;100475.91;;;13.99;100.00
26112;BME280;13829;48.990;8.346;2023-08-07T05:07:46;100471.50;;;13.96;100.00
26112;BME280;13829;48.990;8.346;2023-08-07T05:10:13;100477.59;;;14.08;100.00
26112;BME280;13829;48.990;8.346;2023-08-07T05:12:40;100480.19;;;14.15;99.62
26112;BME280;13829;48.990;8.346;2023-08-07T05:15:08;100482.00;;;14.07;99.81
26112;BME280;13829;48.990;8.346;2023-08-07T05:17:35;100490.72;;;14.20;99.69
26112;BME280;13829;48.990;8.346;2023-08-07T05:20:03;100492.53;;;14.12;100.00
26112;BME280;13829;48.990;8.346;2023-08-07T05:22:32;100489.03;;;14.11;100.00
26112;BME280;13829;48.990;8.346;2023-08-07T05:24:59;100490.75;;;14.12;100.00
26112;BME280;13829;48.990;8.346;2023-08-07T05:27:26;100504.81;;;14.21;99.63
26112;BME280;13829;48.990;8.346;2023-08-07T05:29:53;100497.72;;;14.26;99.51
26112;BME280;13829;48.990;8.346;2023-08-07T05:32:20;100502.00;;;14.39;99.03
26112;BME280;13829;48.990;8.346;2023-08-07T05:34:47;100509.16;;;14.29;100.00
26112;BME280;13829;48.990;8.346;2023-08-07T05:37:14;100508.22;;;14.35;99.69
26112;BME280;13829;48.990;8.346;2023-08-07T05:39:42;100511.63;;;14.46;99.05
26112;BME280;13829;48.990;8.346;2023-08-07T05:42:09;100514.31;;;14.43;98.40
26112;BME280;13829;48.990;8.346;2023-08-07T05:44:38;100521.25;;;14.57;99.65
26112;BME280;13829;48.990;8.346;2023-08-07T05:47:06;100523.84;;;14.66;98.11
26112;BME280;13829;48.990;8.346;2023-08-07T05:49:33;100525.53;;;14.73;97.46
26112;BME280;13829;48.990;8.346;2023-08-07T05:52:00;100528.16;;;14.76;97.67
26112;BME280;13829;48.990;8.346;2023-08-07T05:54:27;100528.06;;;14.84;97.69
26112;BME280;13829;48.990;8.346;2023-08-07T05:56:55;100534.97;;;14.96;96.54
26112;BME280;13829;48.990;8.346;2023-08-07T05:59:22;100532.13;;;15.14;96.26
26112;BME280;13829;48.990;8.346;2023-08-07T06:01:49;100532.94;;;15.23;95.44
26112;BME280;13829;48.990;8.346;2023-08-07T06:04:16;100528.41;;;15.31;94.82
26112;BME280;13829;48.990;8.346;2023-08-07T06:06:43;100536.25;;;15.39;93.19
26112;BME280;13829;48.990;8.346;2023-08-07T06:09:11;100532.50;;;15.55;94.15
26112;BME280;13829;48.990;8.346;2023-08-07T06:11:40;100536.81;;;15.64;92.28
26112;BME280;13829;48.990;8.346;2023-08-07T06:14:09;100543.94;;;15.59;91.71
26112;BME280;13829;48.990;8.346;2023-08-07T06:16:36;100544.91;;;15.53;91.88
26112;BME280;13829;48.990;8.346;2023-08-07T06:19:02;100542.34;;;15.47;92.78
26112;BME280;13829;48.990;8.346;2023-08-07T06:21:29;100542.47;;;15.36;93.07
26112;BME280;13829;48.990;8.346;2023-08-07T06:23:56;100542.25;;;15.52;93.47
26112;BME280;13829;48.990;8.346;2023-08-07T06:26:23;100541.94;;;15.76;91.95
26112;BME280;13829;48.990;8.346;2023-08-07T06:28:50;100541.81;;;15.89;90.01
26112;BME280;13829;48.990;8.346;2023-08-07T06:31:18;100540.38;;;16.22;88.76
26112;BME280;13829;48.990;8.346;2023-08-07T06:33:45;100542.69;;;16.45;87.03
26112;BME280;13829;48.990;8.346;2023-08-07T06:36:13;100538.72;;;16.70;87.08
26112;BME280;13829;48.990;8.346;2023-08-07T06:38:39;100546.34;;;16.87;85.36
26112;BME280;13829;48.990;8.346;2023-08-07T06:41:06;100547.16;;;16.92;83.94
26112;BME280;13829;48.990;8.346;2023-08-07T06:43:33;100550.88;;;16.82;82.05
26112;BME280;13829;48.990;8.346;2023-08-07T06:46:00;100549.13;;;16.80;83.26
26112;BME280;13829;48.990;8.346;2023-08-07T06:48:29;100549.91;;;16.86;83.85
26112;BME280;13829;48.990;8.346;2023-08-07T06:50:55;100562.38;;;16.82;84.11
26112;BME280;13829;48.990;8.346;2023-08-07T06:53:22;100558.00;;;16.79;84.69
26112;BME280;13829;48.990;8.346;2023-08-07T06:55:50;100564.28;;;16.75;84.21
26112;BME280;13829;48.990;8.346;2023-08-07T06:58:17;100562.13;;;16.96;86.03
26112;BME280;13829;48.990;8.346;2023-08-07T07:00:44;100568.84;;;17.17;84.74
26112;BME280;13829;48.990;8.346;2023-08-07T07:03:11;100567.91;;;17.20;80.17
26112;BME280;13829;48.990;8.346;2023-08-07T07:05:39;100570.25;;;17.35;81.82
26112;BME280;13829;48.990;8.346;2023-08-07T07:08:08;100567.41;;;17.44;79.78
26112;BME280;13829;48.990;8.346;2023-08-07T07:10:35;100568.22;;;17.47;80.02
26112;BME280;13829;48.990;8.346;2023-08-07T07:13:02;100564.97;;;17.34;80.41
26112;BME280;13829;48.990;8.346;2023-08-07T07:15:29;100564.13;;;17.30;80.79
26112;BME280;13829;48.990;8.346;2023-08-07T07:17:56;100563.13;;;17.37;81.54
26112;BME280;13829;48.990;8.346;2023-08-07T07:20:23;100567.66;;;17.32;80.65
26112;BME280;13829;48.990;8.346;2023-08-07T07:22:51;100566.34;;;17.09;80.73
26112;BME280;13829;48.990;8.346;2023-08-07T07:25:18;100572.69;;;17.01;79.79
26112;BME280;13829;48.990;8.346;2023-08-07T07:27:45;100574.66;;;16.89;78.62
26112;BME280;13829;48.990;8.346;2023-08-07T07:30:12;100571.91;;;16.95;79.08
26112;BME280;13829;48.990;8.346;2023-08-07T07:32:39;100579.06;;;16.90;78.88
26112;BME280;13829;48.990;8.346;2023-08-07T07:35:07;100572.66;;;17.04;80.19
26112;BME280;13829;48.990;8.346;2023-08-07T07:37:34;100564.78;;;16.96;78.62
26112;BME280;13829;48.990;8.346;2023-08-07T07:40:04;100573.75;;;16.92;72.83
26112;BME280;13829;48.990;8.346;2023-08-07T07:42:31;100581.53;;;17.03;73.74
26112;BME280;13829;48.990;8.346;2023-08-07T07:44:58;100581.56;;;17.01;74.20
26112;BME280;13829;48.990;8.346;2023-08-07T07:47:25;100593.19;;;16.94;73.90
26112;BME280;13829;48.990;8.346;2023-08-07T07:50:06;100592.03;;;17.07;72.37
26112;BME280;13829;48.990;8.346;2023-08-07T07:52:34;100599.13;;;17.08;71.73
26112;BME280;13829;48.990;8.346;2023-08-07T07:55:03;100603.47;;;17.12;72.92
26112;BME280;13829;48.990;8.346;2023-08-07T07:57:30;100600.09;;;17.04;70.75
26112;BME280;13829;48.990;8.346;2023-08-07T07:59:58;100608.78;;;17.12;69.15
26112;BME280;13829;48.990;8.346;2023-08-07T08:02:26;100613.38;;;17.04;67.08
26112;BME280;13829;48.990;8.346;2023-08-07T08:04:53;100617.94;;;16.98;67.88
26112;BME280;13829;48.990;8.346;2023-08-07T08:07:20;100605.47;;;17.01;67.62
26112;BME280;13829;48.990;8.346;2023-08-07T08:09:47;100609.13;;;16.94;67.03
26112;BME280;13829;48.990;8.346;2023-08-07T08:12:15;100608.91;;;17.06;68.02
26112;BME280;13829;48.990;8.346;2023-08-07T08:14:42;100611.59;;;17.50;70.86
26112;BME280;13829;48.990;8.346;2023-08-07T08:17:09;100610.84;;;17.86;68.09
26112;BME280;13829;48.990;8.346;2023-08-07T08:19:36;100608.56;;;18.49;63.99
26112;BME280;13829;48.990;8.346;2023-08-07T08:22:04;100610.47;;;19.14;61.59
26112;BME280;13829;48.990;8.346;2023-08-07T08:24:31;100610.09;;;19.58;58.08
26112;BME280;13829;48.990;8.346;2023-08-07T08:26:58;100607.06;;;20.02;57.42
26112;BME280;13829;48.990;8.346;2023-08-07T08:29:27;100610.41;;;20.09;57.91
26112;BME280;13829;48.990;8.346;2023-08-07T08:31:54;100615.94;;;20.02;55.78
26112;BME280;13829;48.990;8.346;2023-08-07T08:34:22;100615.19;;;19.97;55.79
26112;BME280;13829;48.990;8.346;2023-08-07T08:36:49;100615.38;;;19.61;56.96
26112;BME280;13829;48.990;8.346;2023-08-07T08:39:16;100614.09;;;19.12;56.35
26112;BME280;13829;48.990;8.346;2023-08-07T08:41:46;100609.41;;;19.20;57.76
26112;BME280;13829;48.990;8.346;2023-08-07T08:44:14;100609.72;;;19.07;58.53
26112;BME280;13829;48.990;8.346;2023-08-07T08:46:47;100614.56;;;19.26;58.83
26112;BME280;13829;48.990;8.346;2023-08-07T08:49:25;100618.66;;;19.38;55.84
26112;BME280;13829;48.990;8.346;2023-08-07T08:51:55;100621.91;;;19.18;56.21
26112;BME280;13829;48.990;8.346;2023-08-07T08:54:23;100618.31;;;19.50;56.15
26112;BME280;13829;48.990;8.346;2023-08-07T08:56:52;100620.81;;;19.88;54.92
26112;BME280;13829;48.990;8.346;2023-08-07T08:59:20;100616.72;;;20.34;55.37
26112;BME280;13829;48.990;8.346;2023-08-07T09:01:51;100611.47;;;20.87;52.64
26112;BME280;13829;48.990;8.346;2023-08-07T09:04:18;100616.22;;;21.04;50.51
26112;BME280;13829;48.990;8.346;2023-08-07T09:06:45;100617.31;;;21.23;50.73
26112;BME280;13829;48.990;8.346;2023-08-07T09:09:14;100616.75;;;20.88;52.42
26112;BME280;13829;48.990;8.346;2023-08-07T09:11:42;100618.31;;;21.21;50.49
26112;BME280;13829;48.990;8.346;2023-08-07T09:14:15;100619.78;;;21.29;49.14
26112;BME280;13829;48.990;8.346;2023-08-07T09:16:44;100607.41;;;21.25;50.08
26112;BME280;13829;48.990;8.346;2023-08-07T09:19:13;100621.13;;;21.16;49.10
26112;BME280;13829;48.990;8.346;2023-08-07T09:21:41;100610.63;;;21.60;50.44
26112;BME280;13829;48.990;8.346;2023-08-07T09:24:07;100609.81;;;21.58;48.94
26112;BME280;13829;48.990;8.346;2023-08-07T09:26:34;100612.66;;;21.77;50.42
26112;BME280;13829;48.990;8.346;2023-08-07T09:29:02;100613.09;;;22.12;51.57
26112;BME280;13829;48.990;8.346;2023-08-07T09:31:29;100612.59;;;22.25;47.56
26112;BME280;13829;48.990;8.346;2023-08-07T09:34:02;100615.34;;;22.23;49.16
26112;BME280;13829;48.990;8.346;2023-08-07T09:36:32;100618.22;;;21.95;49.02
26112;BME280;13829;48.990;8.346;2023-08-07T09:39:01;100616.22;;;22.02;48.57
26112;BME280;13829;48.990;8.346;2023-08-07T09:41:29;100615.31;;;22.01;46.44
26112;BME280;13829;48.990;8.346;2023-08-07T09:43:57;100619.56;;;22.07;47.37
26112;BME280;13829;48.990;8.346;2023-08-07T09:46:25;100618.34;;;22.15;45.90
26112;BME280;13829;48.990;8.346;2023-08-07T09:48:57;100624.34;;;21.75;46.29
26112;BME280;13829;48.990;8.346;2023-08-07T09:51:24;100628.31;;;21.64;46.49
26112;BME280;13829;48.990;8.346;2023-08-07T09:53:52;100615.66;;;21.19;48.63
26112;BME280;13829;48.990;8.346;2023-08-07T09:56:19;100623.94;;;21.37;48.50
26112;BME280;13829;48.990;8.346;2023-08-07T09:58:49;100619.66;;;21.32;47.80
26112;BME280;13829;48.990;8.346;2023-08-07T10:01:16;100612.25;;;21.39;48.76
26112;BME280;13829;48.990;8.346;2023-08-07T10:03:44;100616.75;;;21.39;47.15
26112;BME280;13829;48.990;8.346;2023-08-07T10:06:12;100612.03;;;21.71;48.52
26112;BME280;13829;48.990;8.346;2023-08-07T10:08:41;100613.66;;;21.75;47.54
26112;BME280;13829;48.990;8.346;2023-08-07T10:11:11;100617.31;;;21.23;46.79
26112;BME280;13829;48.990;8.346;2023-08-07T10:13:41;100609.66;;;21.12;48.54
26112;BME280;13829;48.990;8.346;2023-08-07T10:16:08;100613.25;;;20.86;46.96
26112;BME280;13829;48.990;8.346;2023-08-07T10:18:35;100610.78;;;21.07;48.00
26112;BME280;13829;48.990;8.346;2023-08-07T10:21:06;100601.78;;;21.33;48.36
26112;BME280;13829;48.990;8.346;2023-08-07T10:23:35;100600.31;;;21.24;47.20
26112;BME280;13829;48.990;8.346;2023-08-07T10:26:06;100616.22;;;21.29;45.85
26112;BME280;13829;48.990;8.346;2023-08-07T10:28:40;100607.25;;;21.30;46.44
26112;BME280;13829;48.990;8.346;2023-08-07T10:31:10;100610.47;;;21.40;49.12
26112;BME280;13829;48.990;8.346;2023-08-07T10:33:40;100607.38;;;21.01;47.84
26112;BME280;13829;48.990;8.346;2023-08-07T10:36:09;100603.13;;;20.96;47.55
26112;BME280;13829;48.990;8.346;2023-08-07T10:38:37;100603.88;;;20.99;47.69
26112;BME280;13829;48.990;8.346;2023-08-07T10:41:07;100605.50;;;21.04;47.17
26112;BME280;13829;48.990;8.346;2023-08-07T10:43:39;100603.66;;;20.80;47.76
26112;BME280;13829;48.990;8.346;2023-08-07T10:46:09;100611.13;;;20.96;48.67
26112;BME280;13829;48.990;8.346;2023-08-07T10:48:41;100607.19;;;20.81;47.69
26112;BME280;13829;48.990;8.346;2023-08-07T10:51:12;100602.75;;;20.80;48.15
26112;BME280;13829;48.990;8.346;2023-08-07T10:53:42;100609.91;;;20.79;48.60
26112;BME280;13829;48.990;8.346;2023-08-07T10:56:11;100603.91;;;20.73;49.03
26112;BME280;13829;48.990;8.346;2023-08-07T10:58:49;100603.47;;;20.58;50.03
26112;BME280;13829;48.990;8.346;2023-08-07T11:01:26;100625.66;;;20.33;48.92
26112;BME280;13829;48.990;8.346;2023-08-07T11:03:57;100618.81;;;20.25;49.67
26112;BME280;13829;48.990;8.346;2023-08-07T11:06:27;100624.34;;;19.88;51.67
26112;BME280;13829;48.990;8.346;2023-08-07T11:08:57;100613.94;;;19.79;49.87
26112;BME280;13829;48.990;8.346;2023-08-07T11:11:24;100613.59;;;19.60;51.33
26112;BME280;13829;48.990;8.346;2023-08-07T11:13:54;100626.28;;;19.52;51.58
26112;BME280;13829;48.990;8.346;2023-08-07T11:16:21;100625.06;;;19.32;51.70
26112;BME280;13829;48.990;8.346;2023-08-07T11:18:49;100624.50;;;19.21;51.21
26112;BME280;13829;48.990;8.346;2023-08-07T11:21:16;100616.81;;;19.09;52.61
26112;BME280;13829;48.990;8.346;2023-08-07T11:23:43;100623.09;;;19.06;52.53
26112;BME280;13829;48.990;8.346;2023-08-07T11:26:12;100628.00;;;18.90;52.26
26112;BME280;13829;48.990;8.346;2023-08-07T11:28:38;100621.09;;;18.80;54.59
26112;BME280;13829;48.990;8.346;2023-08-07T11:31:07;100616.25;;;18.61;64.18
26112;BME280;13829;48.990;8.346;2023-08-07T11:33:36;100621.88;;;18.09;60.22
26112;BME280;13829;48.990;8.346;2023-08-07T11:36:10;100616.56;;;18.09;65.04
26112;BME280;13829;48.990;8.346;2023-08-07T11:38:39;100619.09;;;18.16;62.09
26112;BME280;13829;48.990;8.346;2023-08-07T11:41:09;100619.78;;;18.24;65.53
26112;BME280;13829;48.990;8.346;2023-08-07T11:43:38;100619.16;;;18.50;62.98
26112;BME280;13829;48.990;8.346;2023-08-07T11:46:08;100622.03;;;18.77;61.42
26112;BME280;13829;48.990;8.346;2023-08-07T11:48:37;100620.94;;;18.86;57.60
26112;BME280;13829;48.990;8.346;2023-08-07T11:51:05;100623.41;;;18.95;59.59
26112;BME280;13829;48.990;8.346;2023-08-07T11:53:36;100621.94;;;19.16;54.36
26112;BME280;13829;48.990;8.346;2023-08-07T11:56:06;100617.22;;;19.26;55.19
26112;BME280;13829;48.990;8.346;2023-08-07T11:58:36;100628.31;;;19.44;55.37
26112;BME280;13829;48.990;8.346;2023-08-07T12:01:06;100626.22;;;19.55;53.67
26112;BME280;13829;48.990;8.346;2023-08-07T12:03:38;100624.34;;;19.59;53.79
26112;BME280;13829;48.990;8.346;2023-08-07T12:06:07;100629.84;;;19.52;54.27
26112;BME280;13829;48.990;8.346;2023-08-07T12:08:37;100629.44;;;19.66;52.71
26112;BME280;13829;48.990;8.346;2023-08-07T12:11:08;100619.63;;;19.67;53.91
26112;BME280;13829;48.990;8.346;2023-08-07T12:13:37;100627.00;;;19.59;53.37
26112;BME280;13829;48.990;8.346;2023-08-07T12:16:07;100622.75;;;19.83;51.13
26112;BME280;13829;48.990;8.346;2023-08-07T12:18:36;100619.44;;;20.04;52.56
26112;BME280;13829;48.990;8.346;2023-08-07T12:21:07;100609.63;;;20.33;52.38
26112;BME280;13829;48.990;8.346;2023-08-07T12:23:35;100611.03;;;20.74;51.57
26112;BME280;13829;48.990;8.346;2023-08-07T12:26:03;100600.72;;;20.88;49.53
26112;BME280;13829;48.990;8.346;2023-08-07T12:28:32;100599.09;;;20.84;50.10
26112;BME280;13829;48.990;8.346;2023-08-07T12:30:59;100612.38;;;20.85;49.35
26112;BME280;13829;48.990;8.346;2023-08-07T12:33:29;100613.94;;;20.93;50.02
26112;BME280;13829;48.990;8.346;2023-08-07T12:35:57;100605.41;;;20.81;47.07
26112;BME280;13829;48.990;8.346;2023-08-07T12:38:25;100601.81;;;20.54;48.73
26112;BME280;13829;48.990;8.346;2023-08-07T12:40:52;100597.34;;;20.54;50.02
26112;BME280;13829;48.990;8.346;2023-08-07T12:43:19;100604.91;;;20.68;49.65
26112;BME280;13829;48.990;8.346;2023-08-07T12:45:46;100605.56;;;20.77;50.39
26112;BME280;13829;48.990;8.346;2023-08-07T12:48:14;100610.44;;;20.91;51.08
26112;BME280;13829;48.990;8.346;2023-08-07T12:50:42;100610.09;;;21.00;49.24
26112;BME280;13829;48.990;8.346;2023-08-07T12:53:09;100607.59;;;21.21;49.21